Portada
METAR-TAF:

METAR-TAF

Aeroports :

Miho-Yonago, Japó

latitud: 35-29N, longitud: 133-15E, altitud: 6 m

Observació

L'informe es va fer fa 1 hora i 7 minuts, a les 08:00 UTC
Vent 15 kt del Est/Nord-Est
Temperatura 7°C
Humitat 53%
Pressió 1030 hPa
Visibilitat 10 km o més
Escasses núvols a una alçada de 2000 ft
Núvols disperses a una alçada de 3500 ft

METAR: RJOH 270800Z 06015KT 9999 FEW020 SCT035 07/M02 Q1030

Hora: 18:07 (09:07 UTC)

Pronòstic

L'informe es va fer fa 3 hores i 56 minuts, a les 05:11 UTC
Pronòstic vàlid del 27 a les 06 UTC al 28 a les 12 UTC
Vent 17 kt del Est/Nord-Est
Visibilitat 10 km o més
Escasses núvols a una alçada de 3000 ft
Núvols disperses a una alçada de 5000 ft
Evolucionant progressivament
l' 27 a les 16 UTC al 27 a les 18 UTC
Vent 6 kt del Sud/Sud-Est

TAF: RJOH 270511Z 2706/2812 07017KT 9999 FEW030 SCT050 BECMG 2716/2718 16006KT

Observacions i pronòstics meteorològics de més de 4000 aeroports (METAR i TAF).

Les estacions disponibles són els punts grocs i vermells al mapa.

Posi el ratolí al punt desitjat per veure el nom de l'estació.

Feu clic per veure les observacions i els pronòstics meteorològics.

Per canviar el mapa: feu clic els botons verds amb una creu de color negre per apropar; al botó verd amb un guió per allunyar la imatge; o en les fletxes verdes per a mapes adjacents.


METAR-TAF: